Time;durP1;ratioP1;P1;durP2;ratioP2;P2;SDS_P1;SDS_P2;PMS_P1;PMS_P2;Temp;Humidity;BMP_temperature;BMP_pressure;BME280_temperature;BME280_humidity;BME280_pressure;Samples;Min_cycle;Max_cycle;Signal;HPM_P1;HPM_P2
2022/07/18 00:01:14;;;;;;;;;;;;;;;21.21;34.63;100706.47;4471739;32;19991;-81
2022/07/18 00:03:41;;;;;;;;;;;;;;;20.96;35.65;100710.31;4462559;32;20036;-80
2022/07/18 00:06:07;;;;;;;;;;;;;;;21.18;34.81;100703.00;4466950;31;19982;-81
2022/07/18 00:08:34;;;;;;;;;;;;;;;21.31;33.82;100710.72;4471572;31;19968;-81
2022/07/18 00:11:01;;;;;;;;;;;;;;;21.09;33.55;100711.87;4488824;31;20028;-81
2022/07/18 00:13:28;;;;;;;;;;;;;;;21.35;33.09;100720.34;4484597;31;20002;-81
2022/07/18 00:15:55;;;;;;;;;;;;;;;21.35;33.98;100711.59;4462453;32;20030;-82
2022/07/18 00:18:23;;;;;;;;;;;;;;;21.16;34.82;100718.84;4452817;32;20015;-80
2022/07/18 00:20:49;;;;;;;;;;;;;;;21.21;34.76;100711.72;4485948;31;20019;-80
2022/07/18 00:23:16;;;;;;;;;;;;;;;21.30;34.13;100710.72;4492818;31;20047;-81
2022/07/18 00:25:44;;;;;;;;;;;;;;;21.26;34.22;100707.28;4478028;31;19984;-81
2022/07/18 00:28:11;;;;;;;;;;;;;;;20.93;34.96;100712.97;4472910;31;20329;-82
2022/07/18 00:30:39;;;;;;;;;;;;;;;20.95;34.47;100713.84;4482748;31;20008;-80
2022/07/18 00:33:06;;;;;;;;;;;;;;;20.98;34.77;100713.81;4462617;32;19997;-80
2022/07/18 00:35:33;;;;;;;;;;;;;;;20.96;34.29;100707.69;4470930;31;19972;-80
2022/07/18 00:38:01;;;;;;;;;;;;;;;21.11;34.66;100713.62;4482780;31;19988;-83
2022/07/18 00:40:29;;;;;;;;;;;;;;;20.98;34.85;100713.81;4469707;32;19991;-81
2022/07/18 00:42:56;;;;;;;;;;;;;;;21.06;35.18;100712.81;4484064;31;20058;-81
2022/07/18 00:45:23;;;;;;;;;;;;;;;20.90;35.50;100709.50;4463440;32;20257;-81
2022/07/18 00:47:51;;;;;;;;;;;;;;;21.14;34.23;100717.97;4476860;32;19980;-81
2022/07/18 00:50:18;;;;;;;;;;;;;;;20.98;35.08;100714.66;4476738;32;19999;-81
2022/07/18 00:52:45;;;;;;;;;;;;;;;20.97;35.15;100717.34;4480821;31;20008;-81
2022/07/18 00:55:12;;;;;;;;;;;;;;;20.70;35.92;100714.13;4472902;31;20052;-81
2022/07/18 00:57:40;;;;;;;;;;;;;;;20.78;36.36;100714.06;4478060;31;19980;-83
2022/07/18 01:02:54;;;;;;;;;;;;;;;20.77;35.97;100710.56;4474423;31;19989;-81
2022/07/18 01:05:21;;;;;;;;;;;;;;;20.39;37.16;100717.06;4488457;31;19977;-82
2022/07/18 01:07:48;;;;;;;;;;;;;;;20.49;37.18;100719.63;4493339;31;19980;-81
2022/07/18 01:10:33;;;;;;;;;;;;;;;20.41;37.58;100710.03;4479811;31;19987;-82
2022/07/18 01:13:00;;;;;;;;;;;;;;;20.46;36.82;100707.34;4494191;31;20093;-81
2022/07/18 01:15:27;;;;;;;;;;;;;;;20.53;37.07;100705.56;4467326;31;20634;-81
2022/07/18 01:17:54;;;;;;;;;;;;;;;20.49;36.56;100709.09;4480198;31;20024;-81
2022/07/18 01:20:21;;;;;;;;;;;;;;;20.30;37.89;100709.28;4493919;31;20379;-81
2022/07/18 01:22:48;;;;;;;;;;;;;;;20.23;37.21;100706.69;4477442;31;19984;-81
2022/07/18 01:25:16;;;;;;;;;;;;;;;20.25;37.69;100707.56;4486839;31;20032;-83
2022/07/18 01:27:44;;;;;;;;;;;;;;;20.25;37.39;100705.81;4479382;31;20345;-81
2022/07/18 01:30:10;;;;;;;;;;;;;;;20.37;37.30;100710.06;4475220;31;20020;-82
2022/07/18 01:32:37;;;;;;;;;;;;;;;20.38;36.75;100714.44;4457555;32;20081;-83
2022/07/18 01:35:05;;;;;;;;;;;;;;;20.27;37.47;100719.81;4451588;32;20025;-82
2022/07/18 01:37:31;;;;;;;;;;;;;;;20.19;37.92;100713.75;4479754;31;20006;-82
2022/07/18 01:39:58;;;;;;;;;;;;;;;20.31;36.97;100716.25;4463472;32;20003;-83
2022/07/18 01:42:25;;;;;;;;;;;;;;;19.98;38.13;100717.47;4442506;32;19992;-81
2022/07/18 01:44:52;;;;;;;;;;;;;;;20.26;36.47;100715.47;4463575;32;20007;-82
2022/07/18 01:47:19;;;;;;;;;;;;;;;20.07;37.59;100716.47;4451448;32;20055;-80
2022/07/18 01:49:46;;;;;;;;;;;;;;;20.15;37.00;100715.53;4477965;32;20462;-81
2022/07/18 01:52:13;;;;;;;;;;;;;;;20.13;37.41;100713.81;4464026;32;20059;-82
2022/07/18 01:54:39;;;;;;;;;;;;;;;20.09;37.49;100714.72;4463275;32;20028;-82
2022/07/18 01:57:07;;;;;;;;;;;;;;;20.13;36.94;100714.69;4464366;32;20038;-84
2022/07/18 01:59:34;;;;;;;;;;;;;;;20.41;36.09;100723.16;4463619;32;20779;-82
2022/07/18 02:02:02;;;;;;;;;;;;;;;20.29;37.24;100718.03;4464407;32;19988;-82
2022/07/18 02:07:15;;;;;;;;;;;;;;;20.06;37.42;100709.50;4464182;32;20029;-81
2022/07/18 02:09:43;;;;;;;;;;;;;;;19.85;38.29;100716.69;4477829;32;19988;-81
2022/07/18 02:12:09;;;;;;;;;;;;;;;20.16;37.31;100719.03;4447007;32;20052;-84
2022/07/18 02:14:36;;;;;;;;;;;;;;;20.19;36.78;100716.38;4462458;32;19981;-82
2022/07/18 02:17:03;;;;;;;;;;;;;;;20.02;37.35;100713.91;4462726;32;20401;-81
2022/07/18 02:19:30;;;;;;;;;;;;;;;20.06;37.68;100720.00;4462528;32;19985;-82
2022/07/18 02:21:57;;;;;;;;;;;;;;;20.05;37.69;100723.53;4447768;32;20030;-83
2022/07/18 02:24:24;;;;;;;;;;;;;;;20.00;37.77;100725.31;4432137;32;20317;-83
2022/07/18 02:26:51;;;;;;;;;;;;;;;19.98;38.29;100728.84;4463827;32;19993;-83
2022/07/18 02:29:18;;;;;;;;;;;;;;;19.72;38.22;100729.03;4478587;32;19985;-82
2022/07/18 02:31:45;;;;;;;;;;;;;;;19.53;39.19;100730.03;4464186;32;20337;-83
2022/07/18 02:34:11;;;;;;;;;;;;;;;19.28;39.73;100731.91;4450332;32;19968;-83
2022/07/18 02:36:39;;;;;;;;;;;;;;;19.31;39.99;100734.53;4448758;32;19996;-82
2022/07/18 02:39:06;;;;;;;;;;;;;;;19.43;39.36;100729.22;4449958;32;19989;-83
2022/07/18 02:41:34;;;;;;;;;;;;;;;19.71;38.91;100721.16;4477329;32;20000;-83
2022/07/18 02:44:01;;;;;;;;;;;;;;;19.48;39.09;100722.16;4477851;32;20396;-84
2022/07/18 02:46:28;;;;;;;;;;;;;;;19.48;39.82;100722.16;4461335;32;20003;-84
2022/07/18 02:48:55;;;;;;;;;;;;;;;19.52;39.65;100723.88;4463301;32;20309;-84
2022/07/18 02:51:22;;;;;;;;;;;;;;;19.59;39.01;100723.84;4447808;32;19984;-83
2022/07/18 02:53:49;;;;;;;;;;;;;;;19.51;38.98;100727.38;4477773;32;20310;-82
2022/07/18 02:56:16;;;;;;;;;;;;;;;19.19;40.08;100734.56;4477532;32;19977;-82
2022/07/18 02:58:43;;;;;;;;;;;;;;;19.34;39.17;100729.25;4478117;32;19977;-82
2022/07/18 03:01:10;;;;;;;;;;;;;;;19.21;39.85;100732.84;4463389;32;20380;-83
2022/07/18 03:03:37;;;;;;;;;;;;;;;19.38;39.44;100730.97;4477389;32;20451;-83
2022/07/18 03:06:04;;;;;;;;;;;;;;;19.15;40.40;100730.22;4463707;32;20296;-82
2022/07/18 03:08:31;;;;;;;;;;;;;;;18.89;40.98;100731.22;4463363;32;19984;-82
2022/07/18 03:10:58;;;;;;;;;;;;;;;18.83;41.35;100731.25;4456571;32;19972;-83
2022/07/18 03:13:25;;;;;;;;;;;;;;;18.92;41.34;100736.44;4462811;32;19968;-83
2022/07/18 03:15:51;;;;;;;;;;;;;;;18.81;41.46;100727.72;4470656;32;20318;-83
2022/07/18 03:18:19;;;;;;;;;;;;;;;18.64;41.49;100725.13;4462962;32;20313;-85
2022/07/18 03:20:46;;;;;;;;;;;;;;;18.82;40.76;100729.47;4477705;32;20631;-84
2022/07/18 03:23:12;;;;;;;;;;;;;;;18.93;40.63;100730.31;4463518;32;19992;-84
2022/07/18 03:25:39;;;;;;;;;;;;;;;18.82;41.15;100734.72;4450482;32;20016;-83
2022/07/18 03:28:06;;;;;;;;;;;;;;;18.58;42.09;100723.41;4463090;32;20129;-84
2022/07/18 03:30:33;;;;;;;;;;;;;;;19.14;40.91;100731.09;4477287;32;20002;-84
2022/07/18 03:33:00;;;;;;;;;;;;;;;18.89;40.74;100731.22;4477747;32;20456;-83
2022/07/18 03:35:32;;;;;;;;;;;;;;;18.94;40.95;100729.44;4464150;32;20000;-82
2022/07/18 03:37:59;;;;;;;;;;;;;;;19.00;41.39;100729.41;4449027;32;19999;-84
2022/07/18 03:40:26;;;;;;;;;;;;;;;19.24;40.71;100738.03;4474238;32;20031;-81
2022/07/18 03:42:53;;;;;;;;;;;;;;;18.53;42.33;100742.63;4462728;32;20018;-83
2022/07/18 03:45:20;;;;;;;;;;;;;;;18.77;42.34;100741.75;4477761;32;19992;-82
2022/07/18 03:47:47;;;;;;;;;;;;;;;19.13;40.94;100747.72;4430418;32;20327;-81
2022/07/18 03:50:14;;;;;;;;;;;;;;;19.18;40.97;100738.09;4458361;32;19989;-82
2022/07/18 03:52:40;;;;;;;;;;;;;;;19.17;40.94;100745.06;4469386;32;19994;-82
2022/07/18 03:55:07;;;;;;;;;;;;;;;18.98;41.69;100746.91;4462956;32;20048;-82
2022/07/18 03:57:34;;;;;;;;;;;;;;;19.21;41.53;100754.69;4463127;32;19989;-82
2022/07/18 04:00:02;;;;;;;;;;;;;;;19.06;42.20;100754.75;4463479;32;20023;-83
2022/07/18 04:02:41;;;;;;;;;;;;;;;19.29;41.10;100759.91;4463439;32;20078;-83
2022/07/18 04:05:08;;;;;;;;;;;;;;;19.34;41.53;100754.66;4452565;32;19993;-82
2022/07/18 04:07:36;;;;;;;;;;;;;;;19.39;41.64;100758.97;4449740;32;19980;-82
2022/07/18 04:10:04;;;;;;;;;;;;;;;19.46;41.60;100765.94;4434663;32;20019;-81
2022/07/18 04:12:31;;;;;;;;;;;;;;;19.29;42.49;100758.13;4463176;32;20369;-80
2022/07/18 04:14:57;;;;;;;;;;;;;;;19.20;42.86;100762.56;4476875;32;19997;-82
2022/07/18 04:17:24;;;;;;;;;;;;;;;19.47;41.34;100761.56;4462454;32;20015;-82
2022/07/18 04:19:51;;;;;;;;;;;;;;;19.50;41.75;100766.81;4462560;32;20034;-83
2022/07/18 04:22:18;;;;;;;;;;;;;;;19.36;43.45;100763.38;4476356;32;20289;-81
2022/07/18 04:24:45;;;;;;;;;;;;;;;19.39;43.46;100764.22;4462598;32;20019;-81
2022/07/18 04:27:19;;;;;;;;;;;;;;;19.57;42.07;100767.62;4451159;32;20029;-79
2022/07/18 04:29:46;;;;;;;;;;;;;;;19.83;41.85;100760.47;4435628;32;19968;-79
2022/07/18 04:32:13;;;;;;;;;;;;;;;19.85;41.60;100761.34;4465384;32;19977;-80
2022/07/18 04:34:40;;;;;;;;;;;;;;;19.88;41.65;100763.97;4471554;32;19977;-80
2022/07/18 04:37:07;;;;;;;;;;;;;;;19.80;42.74;100765.75;4467604;32;20014;-80
2022/07/18 04:39:34;;;;;;;;;;;;;;;20.05;42.36;100765.59;4462590;32;20008;-80
2022/07/18 04:42:01;;;;;;;;;;;;;;;20.09;41.92;100768.16;4461780;32;19976;-80
2022/07/18 04:44:27;;;;;;;;;;;;;;;20.14;41.84;100761.12;4466161;32;20117;-81
2022/07/18 04:46:54;;;;;;;;;;;;;;;20.17;42.21;100765.50;4448681;32;20024;-80
2022/07/18 04:49:22;;;;;;;;;;;;;;;20.36;40.68;100767.06;4463015;32;19989;-80
2022/07/18 04:51:49;;;;;;;;;;;;;;;20.47;39.42;100763.47;4464780;32;20010;-81
2022/07/18 04:54:15;;;;;;;;;;;;;;;20.62;39.88;100758.09;4477504;32;19985;-81
2022/07/18 04:56:42;;;;;;;;;;;;;;;20.67;40.52;100762.37;4462519;32;20025;-80
2022/07/18 04:59:09;;;;;;;;;;;;;;;20.81;40.99;100764.03;4478784;32;20265;-81
2022/07/18 05:01:36;;;;;;;;;;;;;;;20.81;40.49;100759.63;4476111;32;19977;-81
2022/07/18 05:04:03;;;;;;;;;;;;;;;20.89;39.17;100754.25;4463256;32;20356;-80
2022/07/18 05:06:31;;;;;;;;;;;;;;;21.02;38.52;100749.72;4478720;32;20002;-80
2022/07/18 05:08:58;;;;;;;;;;;;;;;21.17;37.91;100757.44;4478115;32;19992;-80
2022/07/18 05:11:25;;;;;;;;;;;;;;;21.24;37.30;100758.22;4478126;32;19972;-82
2022/07/18 05:13:52;;;;;;;;;;;;;;;21.24;38.29;100750.31;4463570;32;20030;-83
2022/07/18 05:16:19;;;;;;;;;;;;;;;21.37;37.83;100754.56;4478207;32;20036;-82
2022/07/18 05:18:47;;;;;;;;;;;;;;;21.34;37.17;100760.69;4463837;32;20432;-82
2022/07/18 05:21:14;;;;;;;;;;;;;;;21.46;36.73;100758.84;4471985;32;19998;-81
2022/07/18 05:23:40;;;;;;;;;;;;;;;21.58;36.36;100758.66;4463641;32;20364;-82
2022/07/18 05:26:08;;;;;;;;;;;;;;;21.58;36.30;100769.22;4477009;32;19996;-82
2022/07/18 05:28:34;;;;;;;;;;;;;;;21.60;36.49;100762.13;4478449;32;19997;-83
2022/07/18 05:31:01;;;;;;;;;;;;;;;21.80;36.97;100769.78;4462925;32;20006;-84
2022/07/18 05:33:41;;;;;;;;;;;;;;;21.87;36.92;100770.53;2823142;32;10000598;-82
2022/07/18 05:36:10;;;;;;;;;;;;;;;21.95;35.73;100768.63;1781276;32;10010059;-83
2022/07/18 05:38:40;;;;;;;;;;;;;;;21.88;37.08;100767.88;4437233;31;19988;-82
2022/07/18 05:41:07;;;;;;;;;;;;;;;21.96;37.21;100765.13;4472129;31;20709;-82
2022/07/18 05:43:34;;;;;;;;;;;;;;;22.07;35.56;100765.81;4479757;31;20040;-83
2022/07/18 05:46:01;;;;;;;;;;;;;;;21.92;35.58;100766.03;4492830;31;19972;-82
2022/07/18 05:48:28;;;;;;;;;;;;;;;21.73;34.70;100758.44;4474598;31;19992;-82
2022/07/18 05:50:55;;;;;;;;;;;;;;;22.14;34.10;100764.81;4469837;32;20031;-83
2022/07/18 05:53:22;;;;;;;;;;;;;;;22.27;33.83;100753.22;4478025;32;19988;-82
2022/07/18 05:55:48;;;;;;;;;;;;;;;22.64;32.94;100749.88;4482222;31;20048;-82
2022/07/18 05:58:15;;;;;;;;;;;;;;;22.49;33.19;100750.16;4463672;31;19988;-82
2022/07/18 06:00:42;;;;;;;;;;;;;;;22.03;34.21;100753.56;4484226;31;20033;-83
2022/07/18 06:03:10;;;;;;;;;;;;;;;22.70;33.54;100759.47;4479694;31;19972;-82
2022/07/18 06:05:37;;;;;;;;;;;;;;;22.59;33.14;100749.13;4471602;31;19976;-82
2022/07/18 06:08:04;;;;;;;;;;;;;;;22.57;33.17;100748.25;4482979;31;19980;-83
2022/07/18 06:10:31;;;;;;;;;;;;;;;22.57;32.35;100748.25;4471784;31;19991;-83
2022/07/18 06:13:00;;;;;;;;;;;;;;;22.82;32.28;100747.81;4464573;32;20028;-82
2022/07/18 06:15:27;;;;;;;;;;;;;;;23.16;31.97;100748.84;4476267;32;20436;-83
2022/07/18 06:17:54;;;;;;;;;;;;;;;23.36;31.16;100755.50;4449502;32;20039;-84
2022/07/18 06:20:21;;;;;;;;;;;;;;;23.58;30.47;100751.47;4474155;31;20026;-83
2022/07/18 06:22:48;;;;;;;;;;;;;;;23.77;30.68;100757.25;4305610;32;5002142;-83
2022/07/18 06:25:15;;;;;;;;;;;;;;;24.18;30.66;100751.81;4464992;31;20338;-83
2022/07/18 06:27:42;;;;;;;;;;;;;;;24.19;30.22;100753.59;4456439;31;19977;-83
2022/07/18 06:30:09;;;;;;;;;;;;;;;24.63;29.79;100752.41;4439430;32;20735;-83
2022/07/18 06:32:37;;;;;;;;;;;;;;;24.94;29.44;100749.78;4421327;32;20003;-83
2022/07/18 06:35:04;;;;;;;;;;;;;;;25.21;29.00;100747.28;4431591;32;20008;-83
2022/07/18 06:37:30;;;;;;;;;;;;;;;25.56;28.83;100747.97;4435542;32;20100;-84
2022/07/18 06:39:57;;;;;;;;;;;;;;;25.89;27.46;100746.06;4442727;32;19981;-82
2022/07/18 06:42:29;;;;;;;;;;;;;;;26.23;27.10;100745.81;4445466;32;20019;-83
2022/07/18 06:44:55;;;;;;;;;;;;;;;26.49;26.33;100746.72;4437874;32;20809;-82
2022/07/18 06:47:22;;;;;;;;;;;;;;;26.68;26.40;100745.16;4431274;32;19985;-83
2022/07/18 06:49:49;;;;;;;;;;;;;;;26.87;25.91;100738.22;4439075;32;19985;-83
2022/07/18 06:52:16;;;;;;;;;;;;;;;27.14;25.83;100746.13;4431667;32;20457;-83
2022/07/18 06:54:43;;;;;;;;;;;;;;;27.30;25.63;100744.59;4432780;32;19993;-83
2022/07/18 06:57:10;;;;;;;;;;;;;;;27.57;25.83;100739.13;4446211;32;20011;-83
2022/07/18 06:59:37;;;;;;;;;;;;;;;27.75;24.70;100743.69;4428495;32;19986;-83
2022/07/18 07:02:10;;;;;;;;;;;;;;;28.03;25.01;100742.59;4448087;32;20330;-83
2022/07/18 07:04:37;;;;;;;;;;;;;;;27.95;25.50;100734.06;4457210;32;20015;-83
2022/07/18 07:07:04;;;;;;;;;;;;;;;28.21;25.05;100736.50;4454968;32;19993;-83
2022/07/18 07:09:31;;;;;;;;;;;;;;;28.37;25.42;100741.16;4462687;32;19988;-84
2022/07/18 07:11:58;;;;;;;;;;;;;;;28.81;24.95;100730.34;4436566;32;19993;-84
2022/07/18 07:14:24;;;;;;;;;;;;;;;28.92;24.06;100738.72;4444476;32;19999;-83
2022/07/18 07:16:52;;;;;;;;;;;;;;;28.95;23.85;100739.44;4434609;32;19993;-83
2022/07/18 07:19:19;;;;;;;;;;;;;;;29.35;23.49;100731.41;4457549;32;20019;-83
2022/07/18 07:21:45;;;;;;;;;;;;;;;29.35;23.27;100731.41;4455991;32;20012;-83
2022/07/18 07:24:12;;;;;;;;;;;;;;;29.12;25.43;100730.69;4460658;32;19994;-83
2022/07/18 07:26:41;;;;;;;;;;;;;;;29.39;23.56;100727.69;4446407;32;20099;-83
2022/07/18 07:29:08;;;;;;;;;;;;;;;29.18;24.79;100722.41;4443838;32;20015;-84
2022/07/18 07:31:35;;;;;;;;;;;;;;;29.43;23.78;100729.25;4430646;32;19989;-83
2022/07/18 07:34:03;;;;;;;;;;;;;;;29.30;24.60;100728.13;4410209;32;20040;-83
2022/07/18 07:36:32;;;;;;;;;;;;;;;29.46;23.59;100712.25;4380213;32;20091;-82
2022/07/18 07:38:59;;;;;;;;;;;;;;;29.16;23.94;100724.31;4409973;32;19991;-82
2022/07/18 07:41:26;;;;;;;;;;;;;;;29.56;23.56;100730.38;4464520;32;20285;-82
2022/07/18 07:43:53;;;;;;;;;;;;;;;29.52;23.06;100723.47;4466830;32;20449;-82
2022/07/18 07:46:20;;;;;;;;;;;;;;;29.37;24.66;100726.88;4470256;32;20026;-82
2022/07/18 07:48:47;;;;;;;;;;;;;;;29.32;23.96;100726.22;4452729;32;20330;-82
2022/07/18 07:51:14;;;;;;;;;;;;;;;29.06;24.57;100719.47;4465342;32;19984;-82
2022/07/18 07:53:42;;;;;;;;;;;;;;;29.15;25.19;100729.69;4461785;32;19972;-83
2022/07/18 07:56:08;;;;;;;;;;;;;;;29.52;23.01;100720.81;4456657;32;20015;-83
2022/07/18 07:58:35;;;;;;;;;;;;;;;29.93;22.71;100717.94;4450543;32;19995;-83
2022/07/18 08:01:02;;;;;;;;;;;;;;;29.97;22.85;100724.84;4466307;32;20278;-81
2022/07/18 08:03:30;;;;;;;;;;;;;;;29.50;24.55;100725.34;4446928;32;20281;-82
2022/07/18 08:05:57;;;;;;;;;;;;;;;29.49;22.95;100720.97;4469771;32;20016;-82
2022/07/18 08:08:25;;;;;;;;;;;;;;;30.01;21.97;100720.19;4461895;32;20057;-82
2022/07/18 08:10:53;;;;;;;;;;;;;;;29.76;22.31;100733.91;4469901;32;19989;-82
2022/07/18 08:13:20;;;;;;;;;;;;;;;29.61;24.33;100728.41;4461137;32;20468;-82
2022/07/18 08:15:49;;;;;;;;;;;;;;;29.66;22.78;100721.00;4450427;32;19995;-82
2022/07/18 08:18:16;;;;;;;;;;;;;;;29.43;24.20;100726.59;4460731;32;20027;-82
2022/07/18 08:20:44;;;;;;;;;;;;;;;30.25;22.48;100724.34;4461161;32;20758;-83
2022/07/18 08:23:11;;;;;;;;;;;;;;;30.18;22.24;100719.34;4461001;32;20008;-83
2022/07/18 08:25:39;;;;;;;;;;;;;;;30.28;22.19;100728.63;4453573;32;20348;-82
2022/07/18 08:28:06;;;;;;;;;;;;;;;30.11;21.80;100727.66;4461957;32;20890;-83
2022/07/18 08:30:33;;;;;;;;;;;;;;;30.00;21.23;100719.34;4450479;32;21177;-82
2022/07/18 08:33:03;;;;;;;;;;;;;;;30.21;23.04;100719.22;4452609;32;20335;-83
2022/07/18 08:35:31;;;;;;;;;;;;;;;30.59;22.12;100717.19;4461467;32;19981;-82
2022/07/18 08:37:58;;;;;;;;;;;;;;;30.91;20.79;100723.50;4465485;32;20325;-83
2022/07/18 08:40:25;;;;;;;;;;;;;;;30.57;22.24;100714.63;4475412;32;19988;-83
2022/07/18 08:42:53;;;;;;;;;;;;;;;30.73;21.13;100713.81;4446667;32;20841;-83
2022/07/18 08:45:41;;;;;;;;;;;;;;;30.89;21.05;100717.41;4439151;32;19989;-83
2022/07/18 08:48:10;;;;;;;;;;;;;;;31.18;20.89;100717.59;4429892;32;20071;-83
2022/07/18 08:50:37;;;;;;;;;;;;;;;31.40;19.82;100720.84;4436034;32;20021;-83
2022/07/18 08:53:04;;;;;;;;;;;;;;;31.62;19.22;100719.59;4408497;32;20000;-83
2022/07/18 08:55:30;;;;;;;;;;;;;;;31.30;20.19;100730.28;4429889;32;20751;-83
2022/07/18 08:57:58;;;;;;;;;;;;;;;30.99;20.20;100721.28;4415550;32;19994;-83
2022/07/18 09:00:46;;;;;;;;;;;;;;;31.29;21.13;100728.56;4430250;32;19989;-83
2022/07/18 09:03:13;;;;;;;;;;;;;;;30.80;20.74;100723.25;4430034;32;19977;-83
2022/07/18 09:05:43;;;;;;;;;;;;;;;31.61;20.47;100723.22;4415291;32;19986;-83
2022/07/18 09:08:17;;;;;;;;;;;;;;;31.57;20.34;100719.00;4430629;32;20030;-83
2022/07/18 09:10:46;;;;;;;;;;;;;;;31.90;19.11;100722.41;4429921;32;20319;-83
2022/07/18 09:13:14;;;;;;;;;;;;;;;32.10;19.67;100720.38;4405231;32;19978;-83
2022/07/18 09:15:59;;;;;;;;;;;;;;;31.75;19.73;100723.31;4413476;32;20036;-83
2022/07/18 09:18:30;;;;;;;;;;;;;;;31.86;20.60;100717.31;4414461;32;20365;-83
2022/07/18 09:21:08;;;;;;;;;;;;;;;32.17;20.85;100713.72;4414343;32;19999;-83
2022/07/18 09:23:39;;;;;;;;;;;;;;;32.25;19.44;100708.72;4422855;32;20023;-83
2022/07/18 09:26:07;;;;;;;;;;;;;;;32.22;19.50;100706.22;4429161;32;20068;-83
2022/07/18 09:28:47;;;;;;;;;;;;;;;32.45;17.90;100714.72;4432861;32;20036;-83
2022/07/18 09:31:34;;;;;;;;;;;;;;;32.09;19.64;100713.28;4435243;32;19996;-83
2022/07/18 09:34:02;;;;;;;;;;;;;;;32.62;18.70;100707.38;4430730;32;19977;-83
2022/07/18 09:36:33;;;;;;;;;;;;;;;32.19;18.05;100709.09;4434209;32;20038;-83
2022/07/18 09:39:00;;;;;;;;;;;;;;;32.49;20.18;100716.28;4446922;32;19989;-83
2022/07/18 09:41:30;;;;;;;;;;;;;;;32.63;17.80;100708.22;4447043;32;19985;-83
2022/07/18 09:43:57;;;;;;;;;;;;;;;32.81;17.88;100712.44;4446420;32;19991;-83
2022/07/18 09:46:24;;;;;;;;;;;;;;;32.16;20.01;100709.28;4433151;32;19981;-83
2022/07/18 09:49:10;;;;;;;;;;;;;;;32.22;18.18;100708.91;4433320;32;20326;-83
2022/07/18 09:51:37;;;;;;;;;;;;;;;32.30;19.44;100706.66;4447096;32;20033;-83
2022/07/18 09:54:04;;;;;;;;;;;;;;;32.72;18.32;100696.94;4421040;32;19977;-83
2022/07/18 09:56:37;;;;;;;;;;;;;;;32.94;18.44;100700.94;4418063;32;20336;-83
2022/07/18 09:59:04;;;;;;;;;;;;;;;33.17;17.59;100697.69;4417676;32;19997;-83
2022/07/18 10:01:31;;;;;;;;;;;;;;;32.91;17.26;100701.16;4427994;32;20045;-83
2022/07/18 10:03:59;;;;;;;;;;;;;;;33.50;17.16;100691.09;4434438;32;19993;-83
2022/07/18 10:06:26;;;;;;;;;;;;;;;33.62;16.72;100694.78;4433383;32;19981;-83
2022/07/18 10:08:53;;;;;;;;;;;;;;;33.52;16.85;100702.59;4447246;32;19988;-83
2022/07/18 10:11:20;;;;;;;;;;;;;;;33.63;16.85;100689.31;4447363;32;19969;-83
2022/07/18 10:13:47;;;;;;;;;;;;;;;33.98;16.51;100681.56;4432147;32;20429;-83
2022/07/18 10:16:14;;;;;;;;;;;;;;;33.50;17.95;100677.66;4433147;32;19985;-82
2022/07/18 10:18:41;;;;;;;;;;;;;;;33.20;16.81;100680.53;4447365;32;19999;-82
2022/07/18 10:21:11;;;;;;;;;;;;;;;33.22;17.56;100682.16;4432631;32;20027;-82
2022/07/18 10:23:39;;;;;;;;;;;;;;;33.04;20.29;100675.28;4445929;32;19977;-82
2022/07/18 10:26:26;;;;;;;;;;;;;;;33.50;16.36;100677.66;4446879;32;20043;-82
2022/07/18 10:28:56;;;;;;;;;;;;;;;33.26;17.52;100683.66;4446085;32;20088;-82
2022/07/18 10:31:24;;;;;;;;;;;;;;;33.89;16.04;100681.31;4431774;32;20331;-82
2022/07/18 10:33:51;;;;;;;;;;;;;;;34.15;15.69;100675.06;4417504;32;19969;-83
2022/07/18 10:36:19;;;;;;;;;;;;;;;33.52;16.92;100665.00;4420974;32;20431;-82
2022/07/18 10:39:08;;;;;;;;;;;;;;;34.06;17.36;100664.09;4445578;32;20311;-82
2022/07/18 10:41:38;;;;;;;;;;;;;;;33.67;17.67;100664.00;4446213;32;20008;-83
2022/07/18 10:44:20;;;;;;;;;;;;;;;33.76;16.09;100662.47;4439467;32;19973;-83
2022/07/18 10:47:02;;;;;;;;;;;;;;;34.07;16.02;100661.28;4445745;32;20012;-82
2022/07/18 10:49:52;;;;;;;;;;;;;;;34.20;16.09;100662.12;4445748;32;20266;-82
2022/07/18 10:52:28;;;;;;;;;;;;;;;33.99;15.15;100652.88;4446703;32;20025;-83
2022/07/18 10:55:16;;;;;;;;;;;;;;;33.74;15.65;100654.53;4445716;32;20030;-83
2022/07/18 10:57:55;;;;;;;;;;;;;;;33.58;15.69;100647.63;4446255;32;20043;-83
2022/07/18 11:00:22;;;;;;;;;;;;;;;34.20;15.52;100645.16;4430795;32;20372;-82
2022/07/18 11:03:01;;;;;;;;;;;;;;;34.14;14.65;100646.47;4436166;32;20360;-81
2022/07/18 11:05:28;;;;;;;;;;;;;;;34.09;15.16;100643.22;4446504;32;20029;-83
2022/07/18 11:07:57;;;;;;;;;;;;;;;33.89;17.13;100635.62;4439306;32;20056;-82
2022/07/18 11:10:47;;;;;;;;;;;;;;;33.90;16.37;100632.00;4438222;32;19985;-84
2022/07/18 11:13:34;;;;;;;;;;;;;;;34.06;15.60;100624.63;4441428;32;20013;-84
2022/07/18 11:16:08;;;;;;;;;;;;;;;33.66;15.50;100624.66;4448112;32;19998;-84
2022/07/18 11:18:38;;;;;;;;;;;;;;;33.97;13.77;100617.19;4454591;32;20011;-84
2022/07/18 11:21:25;;;;;;;;;;;;;;;34.16;14.37;100606.91;4457240;32;20322;-84
2022/07/18 11:24:03;;;;;;;;;;;;;;;33.80;15.29;100604.94;4458598;32;19993;-84
2022/07/18 11:26:30;;;;;;;;;;;;;;;34.14;16.13;100603.47;4433768;32;19993;-85
2022/07/18 11:28:58;;;;;;;;;;;;;;;34.15;14.92;100597.13;4444135;32;20401;-84
2022/07/18 11:31:26;;;;;;;;;;;;;;;34.19;14.65;100595.94;4420307;32;20045;-83
2022/07/18 11:33:53;;;;;;;;;;;;;;;34.53;13.76;100598.94;4447496;32;20043;-84
2022/07/18 11:36:21;;;;;;;;;;;;;;;34.33;15.19;100591.41;4430947;32;19990;-84
2022/07/18 11:38:50;;;;;;;;;;;;;;;33.97;14.56;100590.31;4437376;32;20558;-82
2022/07/18 11:41:17;;;;;;;;;;;;;;;33.51;14.59;100588.12;4440046;32;19990;-82
2022/07/18 11:43:44;;;;;;;;;;;;;;;34.18;14.83;100591.53;4446767;32;19980;-82
2022/07/18 11:46:14;;;;;;;;;;;;;;;34.21;15.62;100583.25;4457299;32;20340;-82
2022/07/18 11:48:44;;;;;;;;;;;;;;;34.38;13.91;100586.56;4452840;32;19981;-83
2022/07/18 11:51:12;;;;;;;;;;;;;;;34.26;14.21;100591.81;4433422;32;20020;-82
2022/07/18 11:53:45;;;;;;;;;;;;;;;34.54;14.92;100579.13;4454982;32;19973;-83
2022/07/18 11:56:13;;;;;;;;;;;;;;;34.42;14.07;100585.38;4438036;32;20017;-84
2022/07/18 11:58:41;;;;;;;;;;;;;;;34.50;13.65;100577.62;4437929;32;20392;-84
2022/07/18 12:01:08;;;;;;;;;;;;;;;34.48;13.27;100579.53;4435798;32;19993;-84
2022/07/18 12:03:36;;;;;;;;;;;;;;;34.17;12.96;100570.13;4432365;32;20044;-81
2022/07/18 12:06:13;;;;;;;;;;;;;;;34.50;13.17;100577.62;4438622;32;19987;-81
2022/07/18 12:08:44;;;;;;;;;;;;;;;34.55;12.70;100574.62;4444891;32;19981;-80
2022/07/18 12:11:19;;;;;;;;;;;;;;;34.03;13.53;100563.06;4446185;32;19977;-81
2022/07/18 12:13:50;;;;;;;;;;;;;;;33.92;13.71;100557.53;4452034;32;20000;-81
2022/07/18 12:16:27;;;;;;;;;;;;;;;33.81;14.16;100558.28;4447071;32;20442;-81
2022/07/18 12:18:55;;;;;;;;;;;;;;;33.77;14.17;100554.97;4447634;32;19989;-81
2022/07/18 12:21:22;;;;;;;;;;;;;;;33.62;15.08;100558.69;4452773;32;20052;-81
2022/07/18 12:23:49;;;;;;;;;;;;;;;33.00;15.19;100556.59;4445618;32;19985;-81
2022/07/18 12:26:28;;;;;;;;;;;;;;;33.69;14.65;100551.94;4449170;32;20022;-81
2022/07/18 12:29:12;;;;;;;;;;;;;;;33.44;14.22;100549.19;4453124;32;20015;-81
2022/07/18 12:31:43;;;;;;;;;;;;;;;33.52;14.19;100550.41;4438821;32;19989;-81
2022/07/18 12:34:11;;;;;;;;;;;;;;;33.28;14.48;100555.63;4437179;32;20036;-81
2022/07/18 12:37:10;;;;;;;;;;;;;;;33.94;13.66;100550.22;4450028;32;19985;-82
2022/07/18 12:39:37;;;;;;;;;;;;;;;33.48;13.58;100548.03;4419707;32;20012;-81
2022/07/18 12:42:03;;;;;;;;;;;;;;;33.68;14.06;100544.84;4433495;32;19992;-82
2022/07/18 12:44:30;;;;;;;;;;;;;;;33.38;15.20;100534.38;4404097;32;20025;-81
2022/07/18 12:46:57;;;;;;;;;;;;;;;33.25;14.85;100538.81;4436972;32;19977;-81
2022/07/18 12:49:27;;;;;;;;;;;;;;;33.41;14.64;100533.28;4408109;32;19995;-81